sensor_id;sensor_type;location;lat;lon;timestamp;P1;durP1;ratioP1;P2;durP2;ratioP2
80539;SDS011;69869;48.036;15.780;2023-10-13T00:01:53;2.63;;;2.42;;
80539;SDS011;69869;48.036;15.780;2023-10-13T00:04:20;2.58;;;2.38;;
80539;SDS011;69869;48.036;15.780;2023-10-13T00:06:56;3.05;;;2.78;;
80539;SDS011;69869;48.036;15.780;2023-10-13T00:09:22;2.80;;;2.60;;
80539;SDS011;69869;48.036;15.780;2023-10-13T00:11:57;2.85;;;2.58;;
80539;SDS011;69869;48.036;15.780;2023-10-13T00:14:25;3.00;;;2.75;;
80539;SDS011;69869;48.036;15.780;2023-10-13T00:17:03;2.70;;;2.50;;
80539;SDS011;69869;48.036;15.780;2023-10-13T00:19:30;3.10;;;2.80;;
80539;SDS011;69869;48.036;15.780;2023-10-13T00:22:23;2.80;;;2.60;;
80539;SDS011;69869;48.036;15.780;2023-10-13T00:24:49;2.90;;;2.60;;
80539;SDS011;69869;48.036;15.780;2023-10-13T00:27:23;3.10;;;2.55;;
80539;SDS011;69869;48.036;15.780;2023-10-13T00:29:59;2.83;;;2.63;;
80539;SDS011;69869;48.036;15.780;2023-10-13T00:32:49;2.30;;;2.15;;
80539;SDS011;69869;48.036;15.780;2023-10-13T00:35:23;4.82;;;3.10;;
80539;SDS011;69869;48.036;15.780;2023-10-13T00:38:04;2.50;;;2.30;;
80539;SDS011;69869;48.036;15.780;2023-10-13T00:40:42;2.65;;;2.45;;
80539;SDS011;69869;48.036;15.780;2023-10-13T00:43:20;2.42;;;2.25;;
80539;SDS011;69869;48.036;15.780;2023-10-13T00:45:51;2.63;;;2.42;;
80539;SDS011;69869;48.036;15.780;2023-10-13T00:48:38;2.88;;;2.60;;
80539;SDS011;69869;48.036;15.780;2023-10-13T00:51:11;3.10;;;2.75;;
80539;SDS011;69869;48.036;15.780;2023-10-13T00:53:57;2.60;;;2.40;;
80539;SDS011;69869;48.036;15.780;2023-10-13T00:56:32;2.83;;;2.53;;
80539;SDS011;69869;48.036;15.780;2023-10-13T00:58:58;2.83;;;2.63;;
80539;SDS011;69869;48.036;15.780;2023-10-13T01:01:27;2.75;;;2.55;;
80539;SDS011;69869;48.036;15.780;2023-10-13T01:03:55;2.65;;;2.45;;
80539;SDS011;69869;48.036;15.780;2023-10-13T01:06:24;2.60;;;2.40;;
80539;SDS011;69869;48.036;15.780;2023-10-13T01:09:00;2.85;;;2.55;;
80539;SDS011;69869;48.036;15.780;2023-10-13T01:11:47;2.80;;;2.60;;
80539;SDS011;69869;48.036;15.780;2023-10-13T01:14:17;2.50;;;2.30;;
80539;SDS011;69869;48.036;15.780;2023-10-13T01:16:46;2.60;;;2.40;;
80539;SDS011;69869;48.036;15.780;2023-10-13T01:21:44;2.72;;;2.50;;
80539;SDS011;69869;48.036;15.780;2023-10-13T01:24:10;2.60;;;2.40;;
80539;SDS011;69869;48.036;15.780;2023-10-13T01:26:38;2.50;;;2.30;;
80539;SDS011;69869;48.036;15.780;2023-10-13T01:29:07;2.75;;;2.40;;
80539;SDS011;69869;48.036;15.780;2023-10-13T01:31:43;2.85;;;2.40;;
80539;SDS011;69869;48.036;15.780;2023-10-13T01:34:16;2.45;;;2.22;;
80539;SDS011;69869;48.036;15.780;2023-10-13T01:36:47;2.75;;;2.40;;
80539;SDS011;69869;48.036;15.780;2023-10-13T01:39:16;2.63;;;2.42;;
80539;SDS011;69869;48.036;15.780;2023-10-13T01:41:45;2.65;;;2.45;;
80539;SDS011;69869;48.036;15.780;2023-10-13T01:44:12;3.25;;;2.60;;
80539;SDS011;69869;48.036;15.780;2023-10-13T01:46:38;2.40;;;2.20;;
80539;SDS011;69869;48.036;15.780;2023-10-13T01:49:04;2.70;;;2.50;;
80539;SDS011;69869;48.036;15.780;2023-10-13T01:51:29;2.65;;;2.45;;
80539;SDS011;69869;48.036;15.780;2023-10-13T01:53:55;2.70;;;2.50;;
80539;SDS011;69869;48.036;15.780;2023-10-13T01:56:24;3.80;;;2.85;;
80539;SDS011;69869;48.036;15.780;2023-10-13T01:58:50;2.63;;;2.40;;
80539;SDS011;69869;48.036;15.780;2023-10-13T02:01:17;2.63;;;2.38;;
80539;SDS011;69869;48.036;15.780;2023-10-13T02:03:51;2.60;;;2.40;;
80539;SDS011;69869;48.036;15.780;2023-10-13T02:06:31;2.50;;;2.30;;
80539;SDS011;69869;48.036;15.780;2023-10-13T02:08:58;2.70;;;2.40;;
80539;SDS011;69869;48.036;15.780;2023-10-13T02:11:36;2.60;;;2.40;;
80539;SDS011;69869;48.036;15.780;2023-10-13T02:14:03;2.78;;;2.58;;
80539;SDS011;69869;48.036;15.780;2023-10-13T02:16:29;2.50;;;2.30;;
80539;SDS011;69869;48.036;15.780;2023-10-13T02:18:56;2.50;;;2.30;;
80539;SDS011;69869;48.036;15.780;2023-10-13T02:21:22;2.60;;;2.40;;
80539;SDS011;69869;48.036;15.780;2023-10-13T02:23:57;2.90;;;2.35;;
80539;SDS011;69869;48.036;15.780;2023-10-13T02:26:31;2.83;;;2.50;;
80539;SDS011;69869;48.036;15.780;2023-10-13T02:29:04;2.40;;;2.20;;
80539;SDS011;69869;48.036;15.780;2023-10-13T02:31:36;3.10;;;2.38;;
80539;SDS011;69869;48.036;15.780;2023-10-13T02:34:03;2.50;;;2.30;;
80539;SDS011;69869;48.036;15.780;2023-10-13T02:36:33;2.70;;;2.30;;
80539;SDS011;69869;48.036;15.780;2023-10-13T02:39:09;2.33;;;2.13;;
80539;SDS011;69869;48.036;15.780;2023-10-13T02:41:34;2.30;;;2.10;;
80539;SDS011;69869;48.036;15.780;2023-10-13T02:44:04;2.80;;;2.60;;
80539;SDS011;69869;48.036;15.780;2023-10-13T02:46:31;3.60;;;2.60;;
80539;SDS011;69869;48.036;15.780;2023-10-13T02:49:00;2.70;;;2.20;;
80539;SDS011;69869;48.036;15.780;2023-10-13T02:51:27;3.15;;;2.20;;
80539;SDS011;69869;48.036;15.780;2023-10-13T02:54:00;2.65;;;2.45;;
80539;SDS011;69869;48.036;15.780;2023-10-13T02:56:35;2.60;;;2.40;;
80539;SDS011;69869;48.036;15.780;2023-10-13T02:59:02;3.58;;;2.30;;
80539;SDS011;69869;48.036;15.780;2023-10-13T03:01:34;2.38;;;2.17;;
80539;SDS011;69869;48.036;15.780;2023-10-13T03:04:01;2.45;;;2.25;;
80539;SDS011;69869;48.036;15.780;2023-10-13T03:06:38;2.30;;;2.10;;
80539;SDS011;69869;48.036;15.780;2023-10-13T03:09:08;2.42;;;2.22;;
80539;SDS011;69869;48.036;15.780;2023-10-13T03:11:44;2.72;;;2.53;;
80539;SDS011;69869;48.036;15.780;2023-10-13T03:14:17;2.85;;;2.20;;
80539;SDS011;69869;48.036;15.780;2023-10-13T03:16:56;3.85;;;2.10;;
80539;SDS011;69869;48.036;15.780;2023-10-13T03:19:34;2.25;;;2.05;;
80539;SDS011;69869;48.036;15.780;2023-10-13T03:22:05;2.13;;;2.00;;
80539;SDS011;69869;48.036;15.780;2023-10-13T03:24:36;2.72;;;2.17;;
80539;SDS011;69869;48.036;15.780;2023-10-13T03:27:18;2.47;;;2.28;;
80539;SDS011;69869;48.036;15.780;2023-10-13T03:29:48;2.70;;;2.50;;
80539;SDS011;69869;48.036;15.780;2023-10-13T03:32:21;2.38;;;2.17;;
80539;SDS011;69869;48.036;15.780;2023-10-13T03:34:51;3.20;;;2.08;;
80539;SDS011;69869;48.036;15.780;2023-10-13T03:37:26;2.20;;;2.10;;
80539;SDS011;69869;48.036;15.780;2023-10-13T03:40:04;2.40;;;2.20;;
80539;SDS011;69869;48.036;15.780;2023-10-13T03:42:55;2.40;;;2.20;;
80539;SDS011;69869;48.036;15.780;2023-10-13T03:45:38;2.30;;;2.10;;
80539;SDS011;69869;48.036;15.780;2023-10-13T03:48:05;2.17;;;2.08;;
80539;SDS011;69869;48.036;15.780;2023-10-13T03:50:35;2.38;;;2.13;;
80539;SDS011;69869;48.036;15.780;2023-10-13T03:53:01;2.40;;;2.20;;
80539;SDS011;69869;48.036;15.780;2023-10-13T03:55:28;2.20;;;2.00;;
80539;SDS011;69869;48.036;15.780;2023-10-13T03:57:54;2.22;;;2.03;;
80539;SDS011;69869;48.036;15.780;2023-10-13T04:00:20;2.20;;;2.03;;
80539;SDS011;69869;48.036;15.780;2023-10-13T04:02:49;2.50;;;2.30;;
80539;SDS011;69869;48.036;15.780;2023-10-13T04:05:34;2.63;;;2.42;;
80539;SDS011;69869;48.036;15.780;2023-10-13T04:08:01;2.25;;;1.98;;
80539;SDS011;69869;48.036;15.780;2023-10-13T04:10:48;2.25;;;2.05;;
80539;SDS011;69869;48.036;15.780;2023-10-13T04:13:18;2.28;;;2.08;;
80539;SDS011;69869;48.036;15.780;2023-10-13T04:16:03;2.40;;;2.20;;
80539;SDS011;69869;48.036;15.780;2023-10-13T04:18:50;2.63;;;2.13;;
80539;SDS011;69869;48.036;15.780;2023-10-13T04:21:22;3.25;;;2.20;;
80539;SDS011;69869;48.036;15.780;2023-10-13T04:24:07;2.53;;;2.33;;
80539;SDS011;69869;48.036;15.780;2023-10-13T04:26:43;2.50;;;2.03;;
80539;SDS011;69869;48.036;15.780;2023-10-13T04:29:31;2.47;;;2.28;;
80539;SDS011;69869;48.036;15.780;2023-10-13T04:32:12;2.17;;;2.08;;
80539;SDS011;69869;48.036;15.780;2023-10-13T04:34:53;2.20;;;2.00;;
80539;SDS011;69869;48.036;15.780;2023-10-13T04:37:37;2.40;;;2.20;;
80539;SDS011;69869;48.036;15.780;2023-10-13T04:40:22;2.30;;;2.10;;
80539;SDS011;69869;48.036;15.780;2023-10-13T04:42:51;2.20;;;2.10;;
80539;SDS011;69869;48.036;15.780;2023-10-13T04:45:29;2.28;;;2.08;;
80539;SDS011;69869;48.036;15.780;2023-10-13T04:47:54;1.98;;;1.83;;
80539;SDS011;69869;48.036;15.780;2023-10-13T04:50:39;2.30;;;2.10;;
80539;SDS011;69869;48.036;15.780;2023-10-13T04:53:23;2.33;;;2.20;;
80539;SDS011;69869;48.036;15.780;2023-10-13T04:55:55;2.17;;;2.08;;
80539;SDS011;69869;48.036;15.780;2023-10-13T04:58:27;2.42;;;2.22;;
80539;SDS011;69869;48.036;15.780;2023-10-13T05:01:12;2.95;;;2.20;;
80539;SDS011;69869;48.036;15.780;2023-10-13T05:03:49;2.15;;;1.95;;
80539;SDS011;69869;48.036;15.780;2023-10-13T05:06:38;2.70;;;2.13;;
80539;SDS011;69869;48.036;15.780;2023-10-13T05:09:12;2.22;;;2.03;;
80539;SDS011;69869;48.036;15.780;2023-10-13T05:11:57;2.83;;;2.28;;
80539;SDS011;69869;48.036;15.780;2023-10-13T05:14:41;2.17;;;2.00;;
80539;SDS011;69869;48.036;15.780;2023-10-13T05:17:25;2.25;;;2.05;;
80539;SDS011;69869;48.036;15.780;2023-10-13T05:20:09;2.72;;;2.13;;
80539;SDS011;69869;48.036;15.780;2023-10-13T05:22:53;2.03;;;1.92;;
80539;SDS011;69869;48.036;15.780;2023-10-13T05:25:38;2.22;;;2.03;;
80539;SDS011;69869;48.036;15.780;2023-10-13T05:28:23;3.03;;;2.20;;
80539;SDS011;69869;48.036;15.780;2023-10-13T05:31:07;2.00;;;1.90;;
80539;SDS011;69869;48.036;15.780;2023-10-13T05:33:52;2.67;;;2.00;;
80539;SDS011;69869;48.036;15.780;2023-10-13T05:36:36;2.75;;;2.22;;
80539;SDS011;69869;48.036;15.780;2023-10-13T05:39:20;2.30;;;2.10;;
80539;SDS011;69869;48.036;15.780;2023-10-13T05:42:05;2.42;;;2.22;;
80539;SDS011;69869;48.036;15.780;2023-10-13T05:44:49;2.20;;;2.00;;
80539;SDS011;69869;48.036;15.780;2023-10-13T05:47:21;2.15;;;2.03;;
80539;SDS011;69869;48.036;15.780;2023-10-13T05:50:08;2.80;;;2.28;;
80539;SDS011;69869;48.036;15.780;2023-10-13T05:52:46;2.72;;;2.10;;
80539;SDS011;69869;48.036;15.780;2023-10-13T05:55:22;2.40;;;2.20;;
80539;SDS011;69869;48.036;15.780;2023-10-13T05:58:09;2.30;;;2.10;;
80539;SDS011;69869;48.036;15.780;2023-10-13T06:00:54;2.28;;;2.10;;
80539;SDS011;69869;48.036;15.780;2023-10-13T06:03:39;2.80;;;2.42;;
80539;SDS011;69869;48.036;15.780;2023-10-13T06:06:24;2.20;;;2.10;;
80539;SDS011;69869;48.036;15.780;2023-10-13T06:09:08;2.40;;;2.20;;
80539;SDS011;69869;48.036;15.780;2023-10-13T06:11:52;2.75;;;2.30;;
80539;SDS011;69869;48.036;15.780;2023-10-13T06:14:36;2.72;;;2.20;;
80539;SDS011;69869;48.036;15.780;2023-10-13T06:17:21;2.40;;;2.20;;
80539;SDS011;69869;48.036;15.780;2023-10-13T06:20:06;2.47;;;2.10;;
80539;SDS011;69869;48.036;15.780;2023-10-13T06:22:50;3.17;;;2.00;;
80539;SDS011;69869;48.036;15.780;2023-10-13T06:25:34;3.22;;;1.90;;
80539;SDS011;69869;48.036;15.780;2023-10-13T06:28:19;2.50;;;2.10;;
80539;SDS011;69869;48.036;15.780;2023-10-13T06:31:04;2.33;;;2.13;;
80539;SDS011;69869;48.036;15.780;2023-10-13T06:33:33;2.92;;;2.10;;
80539;SDS011;69869;48.036;15.780;2023-10-13T06:36:01;2.20;;;2.00;;
80539;SDS011;69869;48.036;15.780;2023-10-13T06:38:27;1.92;;;1.83;;
80539;SDS011;69869;48.036;15.780;2023-10-13T06:41:01;3.67;;;2.30;;
80539;SDS011;69869;48.036;15.780;2023-10-13T06:43:36;2.47;;;2.10;;
80539;SDS011;69869;48.036;15.780;2023-10-13T06:46:07;2.10;;;1.90;;
80539;SDS011;69869;48.036;15.780;2023-10-13T06:48:39;2.88;;;2.40;;
80539;SDS011;69869;48.036;15.780;2023-10-13T06:51:06;3.50;;;2.00;;
80539;SDS011;69869;48.036;15.780;2023-10-13T06:53:46;2.20;;;2.00;;
80539;SDS011;69869;48.036;15.780;2023-10-13T06:56:16;2.63;;;2.20;;
80539;SDS011;69869;48.036;15.780;2023-10-13T06:58:52;3.47;;;2.25;;
80539;SDS011;69869;48.036;15.780;2023-10-13T07:01:24;2.42;;;2.20;;
80539;SDS011;69869;48.036;15.780;2023-10-13T07:03:53;2.22;;;2.05;;
80539;SDS011;69869;48.036;15.780;2023-10-13T07:06:22;2.05;;;1.85;;
80539;SDS011;69869;48.036;15.780;2023-10-13T07:08:48;2.47;;;2.20;;
80539;SDS011;69869;48.036;15.780;2023-10-13T07:11:17;2.40;;;2.20;;
80539;SDS011;69869;48.036;15.780;2023-10-13T07:14:02;3.75;;;2.00;;
80539;SDS011;69869;48.036;15.780;2023-10-13T07:17:24;2.53;;;2.22;;
80539;SDS011;69869;48.036;15.780;2023-10-13T07:19:32;2.70;;;2.40;;
80539;SDS011;69869;48.036;15.780;2023-10-13T07:21:59;2.33;;;2.10;;
80539;SDS011;69869;48.036;15.780;2023-10-13T07:24:44;2.40;;;2.13;;
80539;SDS011;69869;48.036;15.780;2023-10-13T07:27:14;3.42;;;2.20;;
80539;SDS011;69869;48.036;15.780;2023-10-13T07:29:50;2.40;;;2.20;;
80539;SDS011;69869;48.036;15.780;2023-10-13T07:32:35;2.45;;;2.25;;
80539;SDS011;69869;48.036;15.780;2023-10-13T07:35:01;2.25;;;2.05;;
80539;SDS011;69869;48.036;15.780;2023-10-13T07:37:32;2.28;;;2.08;;
80539;SDS011;69869;48.036;15.780;2023-10-13T07:39:58;2.83;;;2.25;;
80539;SDS011;69869;48.036;15.780;2023-10-13T07:42:27;2.78;;;2.30;;
80539;SDS011;69869;48.036;15.780;2023-10-13T07:45:04;2.30;;;2.10;;
80539;SDS011;69869;48.036;15.780;2023-10-13T07:47:31;2.40;;;2.20;;
80539;SDS011;69869;48.036;15.780;2023-10-13T07:49:59;2.65;;;2.13;;
80539;SDS011;69869;48.036;15.780;2023-10-13T07:52:24;2.60;;;2.40;;
80539;SDS011;69869;48.036;15.780;2023-10-13T07:55:01;2.60;;;1.88;;
80539;SDS011;69869;48.036;15.780;2023-10-13T07:57:35;2.80;;;2.20;;
80539;SDS011;69869;48.036;15.780;2023-10-13T08:00:17;2.63;;;2.17;;
80539;SDS011;69869;48.036;15.780;2023-10-13T08:03:02;3.08;;;2.20;;
80539;SDS011;69869;48.036;15.780;2023-10-13T08:05:36;2.97;;;2.22;;
80539;SDS011;69869;48.036;15.780;2023-10-13T08:08:21;2.30;;;2.10;;
80539;SDS011;69869;48.036;15.780;2023-10-13T08:10:50;2.50;;;2.00;;
80539;SDS011;69869;48.036;15.780;2023-10-13T08:13:26;2.33;;;2.15;;
80539;SDS011;69869;48.036;15.780;2023-10-13T08:15:51;2.45;;;2.10;;
80539;SDS011;69869;48.036;15.780;2023-10-13T08:18:18;2.25;;;2.10;;
80539;SDS011;69869;48.036;15.780;2023-10-13T08:20:57;3.40;;;2.42;;
80539;SDS011;69869;48.036;15.780;2023-10-13T08:23:31;2.67;;;2.10;;
80539;SDS011;69869;48.036;15.780;2023-10-13T08:26:16;2.42;;;2.22;;
80539;SDS011;69869;48.036;15.780;2023-10-13T08:29:04;2.47;;;2.20;;
80539;SDS011;69869;48.036;15.780;2023-10-13T08:31:48;2.30;;;2.10;;
80539;SDS011;69869;48.036;15.780;2023-10-13T08:34:35;3.53;;;2.35;;
80539;SDS011;69869;48.036;15.780;2023-10-13T08:37:24;2.50;;;2.30;;
80539;SDS011;69869;48.036;15.780;2023-10-13T08:39:52;3.80;;;2.35;;
80539;SDS011;69869;48.036;15.780;2023-10-13T08:42:28;3.08;;;2.50;;
80539;SDS011;69869;48.036;15.780;2023-10-13T08:45:14;3.35;;;2.13;;
80539;SDS011;69869;48.036;15.780;2023-10-13T08:47:57;2.85;;;2.20;;
80539;SDS011;69869;48.036;15.780;2023-10-13T08:50:42;2.58;;;2.38;;
80539;SDS011;69869;48.036;15.780;2023-10-13T08:53:27;2.08;;;1.90;;
80539;SDS011;69869;48.036;15.780;2023-10-13T08:58:41;3.53;;;2.35;;
80539;SDS011;69869;48.036;15.780;2023-10-13T09:04:05;2.60;;;2.40;;
80539;SDS011;69869;48.036;15.780;2023-10-13T09:14:58;2.70;;;2.15;;
80539;SDS011;69869;48.036;15.780;2023-10-13T09:17:32;2.60;;;2.28;;
80539;SDS011;69869;48.036;15.780;2023-10-13T09:20:06;2.60;;;2.40;;
80539;SDS011;69869;48.036;15.780;2023-10-13T09:22:48;2.53;;;2.15;;
80539;SDS011;69869;48.036;15.780;2023-10-13T09:25:31;2.38;;;2.17;;
80539;SDS011;69869;48.036;15.780;2023-10-13T09:28:10;2.20;;;2.00;;
80539;SDS011;69869;48.036;15.780;2023-10-13T09:33:09;2.60;;;2.40;;
80539;SDS011;69869;48.036;15.780;2023-10-13T09:38:14;2.60;;;2.40;;
80539;SDS011;69869;48.036;15.780;2023-10-13T09:40:40;2.15;;;1.95;;
80539;SDS011;69869;48.036;15.780;2023-10-13T09:43:14;2.33;;;2.10;;
80539;SDS011;69869;48.036;15.780;2023-10-13T09:45:43;2.40;;;2.20;;
80539;SDS011;69869;48.036;15.780;2023-10-13T09:48:33;2.75;;;2.17;;
80539;SDS011;69869;48.036;15.780;2023-10-13T09:51:02;3.10;;;2.40;;
80539;SDS011;69869;48.036;15.780;2023-10-13T09:53:34;3.55;;;2.22;;
80539;SDS011;69869;48.036;15.780;2023-10-13T09:58:42;3.22;;;2.00;;
80539;SDS011;69869;48.036;15.780;2023-10-13T10:01:26;3.20;;;2.15;;
80539;SDS011;69869;48.036;15.780;2023-10-13T10:04:09;2.67;;;2.33;;
80539;SDS011;69869;48.036;15.780;2023-10-13T10:06:55;2.42;;;1.77;;
80539;SDS011;69869;48.036;15.780;2023-10-13T10:09:30;2.70;;;2.13;;
80539;SDS011;69869;48.036;15.780;2023-10-13T10:17:37;2.85;;;2.13;;
80539;SDS011;69869;48.036;15.780;2023-10-13T10:20:07;2.97;;;2.30;;
80539;SDS011;69869;48.036;15.780;2023-10-13T10:22:57;1.90;;;1.80;;
80539;SDS011;69869;48.036;15.780;2023-10-13T10:25:31;3.30;;;2.35;;
80539;SDS011;69869;48.036;15.780;2023-10-13T10:28:02;3.47;;;2.10;;
80539;SDS011;69869;48.036;15.780;2023-10-13T10:30:36;2.28;;;2.08;;
80539;SDS011;69869;48.036;15.780;2023-10-13T10:33:07;2.95;;;2.15;;
80539;SDS011;69869;48.036;15.780;2023-10-13T10:35:44;2.85;;;2.10;;
80539;SDS011;69869;48.036;15.780;2023-10-13T10:40:51;3.45;;;2.30;;
80539;SDS011;69869;48.036;15.780;2023-10-13T10:43:29;2.08;;;1.88;;
80539;SDS011;69869;48.036;15.780;2023-10-13T10:46:25;3.13;;;2.10;;
80539;SDS011;69869;48.036;15.780;2023-10-13T10:48:52;2.53;;;1.98;;
80539;SDS011;69869;48.036;15.780;2023-10-13T10:51:26;2.10;;;1.90;;
80539;SDS011;69869;48.036;15.780;2023-10-13T10:53:57;2.70;;;2.20;;
80539;SDS011;69869;48.036;15.780;2023-10-13T10:56:36;2.17;;;1.98;;
80539;SDS011;69869;48.036;15.780;2023-10-13T10:59:02;2.17;;;1.98;;
80539;SDS011;69869;48.036;15.780;2023-10-13T11:01:29;2.20;;;1.90;;
80539;SDS011;69869;48.036;15.780;2023-10-13T11:04:04;2.58;;;2.00;;
80539;SDS011;69869;48.036;15.780;2023-10-13T11:06:36;2.10;;;1.90;;
80539;SDS011;69869;48.036;15.780;2023-10-13T11:09:10;2.30;;;2.10;;
80539;SDS011;69869;48.036;15.780;2023-10-13T11:14:31;3.00;;;2.08;;
80539;SDS011;69869;48.036;15.780;2023-10-13T11:16:57;2.30;;;2.10;;
80539;SDS011;69869;48.036;15.780;2023-10-13T11:19:34;2.50;;;2.10;;
80539;SDS011;69869;48.036;15.780;2023-10-13T11:22:14;3.33;;;1.92;;
80539;SDS011;69869;48.036;15.780;2023-10-13T11:25:00;2.22;;;2.00;;
80539;SDS011;69869;48.036;15.780;2023-10-13T11:27:37;1.95;;;1.83;;
80539;SDS011;69869;48.036;15.780;2023-10-13T11:30:13;2.95;;;1.90;;
80539;SDS011;69869;48.036;15.780;2023-10-13T11:32:43;4.18;;;2.30;;
80539;SDS011;69869;48.036;15.780;2023-10-13T11:35:09;2.45;;;2.25;;
80539;SDS011;69869;48.036;15.780;2023-10-13T11:37:57;2.40;;;1.83;;
80539;SDS011;69869;48.036;15.780;2023-10-13T11:40:38;4.05;;;2.38;;
80539;SDS011;69869;48.036;15.780;2023-10-13T11:43:22;2.15;;;1.85;;
80539;SDS011;69869;48.036;15.780;2023-10-13T11:45:49;4.55;;;2.00;;
80539;SDS011;69869;48.036;15.780;2023-10-13T11:48:38;1.98;;;1.80;;
80539;SDS011;69869;48.036;15.780;2023-10-13T11:51:07;2.08;;;1.88;;
80539;SDS011;69869;48.036;15.780;2023-10-13T11:53:34;2.55;;;1.90;;
80539;SDS011;69869;48.036;15.780;2023-10-13T11:56:08;3.83;;;1.75;;
80539;SDS011;69869;48.036;15.780;2023-10-13T11:58:37;1.95;;;1.73;;
80539;SDS011;69869;48.036;15.780;2023-10-13T12:01:05;2.08;;;1.83;;
80539;SDS011;69869;48.036;15.780;2023-10-13T12:03:37;3.47;;;2.00;;
80539;SDS011;69869;48.036;15.780;2023-10-13T12:06:22;3.05;;;1.95;;
80539;SDS011;69869;48.036;15.780;2023-10-13T12:08:58;3.00;;;2.10;;
80539;SDS011;69869;48.036;15.780;2023-10-13T12:11:39;3.38;;;2.10;;
80539;SDS011;69869;48.036;15.780;2023-10-13T12:14:07;2.00;;;1.80;;
80539;SDS011;69869;48.036;15.780;2023-10-13T12:16:45;3.00;;;2.10;;
80539;SDS011;69869;48.036;15.780;2023-10-13T12:19:16;3.33;;;2.10;;
80539;SDS011;69869;48.036;15.780;2023-10-13T12:21:48;1.90;;;1.70;;
80539;SDS011;69869;48.036;15.780;2023-10-13T12:24:19;2.53;;;2.08;;
80539;SDS011;69869;48.036;15.780;2023-10-13T12:27:01;4.63;;;1.92;;
80539;SDS011;69869;48.036;15.780;2023-10-13T12:29:27;2.95;;;1.80;;
80539;SDS011;69869;48.036;15.780;2023-10-13T12:31:56;2.25;;;1.90;;
80539;SDS011;69869;48.036;15.780;2023-10-13T12:34:37;2.10;;;1.80;;
80539;SDS011;69869;48.036;15.780;2023-10-13T12:37:22;2.45;;;1.80;;
80539;SDS011;69869;48.036;15.780;2023-10-13T12:42:51;2.08;;;1.80;;
80539;SDS011;69869;48.036;15.780;2023-10-13T12:45:42;1.60;;;1.50;;
80539;SDS011;69869;48.036;15.780;2023-10-13T12:48:27;2.90;;;2.00;;
80539;SDS011;69869;48.036;15.780;2023-10-13T12:51:12;1.67;;;1.58;;
80539;SDS011;69869;48.036;15.780;2023-10-13T12:54:05;2.65;;;2.08;;
80539;SDS011;69869;48.036;15.780;2023-10-13T12:56:39;3.03;;;1.95;;
80539;SDS011;69869;48.036;15.780;2023-10-13T12:59:11;3.00;;;1.90;;
80539;SDS011;69869;48.036;15.780;2023-10-13T13:01:39;2.13;;;1.77;;
80539;SDS011;69869;48.036;15.780;2023-10-13T13:04:09;2.65;;;1.75;;
80539;SDS011;69869;48.036;15.780;2023-10-13T13:06:51;2.10;;;1.85;;
80539;SDS011;69869;48.036;15.780;2023-10-13T13:09:18;3.15;;;1.75;;
80539;SDS011;69869;48.036;15.780;2023-10-13T13:11:51;3.00;;;1.88;;
80539;SDS011;69869;48.036;15.780;2023-10-13T13:14:22;2.05;;;1.85;;
80539;SDS011;69869;48.036;15.780;2023-10-13T13:16:54;2.00;;;1.67;;
80539;SDS011;69869;48.036;15.780;2023-10-13T13:19:29;2.83;;;1.92;;
80539;SDS011;69869;48.036;15.780;2023-10-13T13:22:03;2.92;;;1.70;;
80539;SDS011;69869;48.036;15.780;2023-10-13T13:24:43;3.58;;;2.10;;
80539;SDS011;69869;48.036;15.780;2023-10-13T13:27:16;2.83;;;1.90;;
80539;SDS011;69869;48.036;15.780;2023-10-13T13:29:47;2.40;;;1.92;;
80539;SDS011;69869;48.036;15.780;2023-10-13T13:32:13;1.92;;;1.70;;
80539;SDS011;69869;48.036;15.780;2023-10-13T13:34:49;4.18;;;1.90;;
80539;SDS011;69869;48.036;15.780;2023-10-13T13:37:33;3.38;;;2.00;;
80539;SDS011;69869;48.036;15.780;2023-10-13T13:39:59;3.58;;;2.30;;
80539;SDS011;69869;48.036;15.780;2023-10-13T13:42:47;2.08;;;1.83;;
80539;SDS011;69869;48.036;15.780;2023-10-13T13:50:23;1.70;;;1.60;;
80539;SDS011;69869;48.036;15.780;2023-10-13T13:52:55;1.77;;;1.65;;
80539;SDS011;69869;48.036;15.780;2023-10-13T13:55:25;2.28;;;1.92;;
80539;SDS011;69869;48.036;15.780;2023-10-13T13:57:57;1.70;;;1.60;;
80539;SDS011;69869;48.036;15.780;2023-10-13T14:00:23;1.73;;;1.63;;
80539;SDS011;69869;48.036;15.780;2023-10-13T14:03:09;1.70;;;1.60;;
80539;SDS011;69869;48.036;15.780;2023-10-13T14:05:42;1.60;;;1.50;;
80539;SDS011;69869;48.036;15.780;2023-10-13T14:08:08;1.70;;;1.60;;
80539;SDS011;69869;48.036;15.780;2023-10-13T14:10:40;1.70;;;1.60;;
80539;SDS011;69869;48.036;15.780;2023-10-13T14:13:24;1.60;;;1.50;;
80539;SDS011;69869;48.036;15.780;2023-10-13T14:16:10;1.85;;;1.75;;
80539;SDS011;69869;48.036;15.780;2023-10-13T14:21:14;1.70;;;1.60;;
80539;SDS011;69869;48.036;15.780;2023-10-13T14:23:45;2.20;;;1.75;;
80539;SDS011;69869;48.036;15.780;2023-10-13T14:26:15;2.53;;;1.80;;
80539;SDS011;69869;48.036;15.780;2023-10-13T14:28:45;2.17;;;1.70;;
80539;SDS011;69869;48.036;15.780;2023-10-13T14:33:44;1.63;;;1.52;;
80539;SDS011;69869;48.036;15.780;2023-10-13T14:36:11;1.50;;;1.40;;
80539;SDS011;69869;48.036;15.780;2023-10-13T14:38:37;1.50;;;1.40;;
80539;SDS011;69869;48.036;15.780;2023-10-13T14:41:02;1.77;;;1.63;;
80539;SDS011;69869;48.036;15.780;2023-10-13T14:43:28;4.22;;;2.20;;
80539;SDS011;69869;48.036;15.780;2023-10-13T14:45:53;5.93;;;1.85;;
80539;SDS011;69869;48.036;15.780;2023-10-13T14:48:20;3.67;;;1.85;;
80539;SDS011;69869;48.036;15.780;2023-10-13T14:50:49;2.05;;;1.70;;
80539;SDS011;69869;48.036;15.780;2023-10-13T14:53:15;2.05;;;1.60;;
80539;SDS011;69869;48.036;15.780;2023-10-13T14:55:44;1.60;;;1.50;;
80539;SDS011;69869;48.036;15.780;2023-10-13T14:58:10;2.20;;;1.60;;
80539;SDS011;69869;48.036;15.780;2023-10-13T15:00:41;1.60;;;1.50;;
80539;SDS011;69869;48.036;15.780;2023-10-13T15:03:10;1.60;;;1.50;;
80539;SDS011;69869;48.036;15.780;2023-10-13T15:05:39;1.50;;;1.40;;
80539;SDS011;69869;48.036;15.780;2023-10-13T15:08:08;1.83;;;1.73;;
80539;SDS011;69869;48.036;15.780;2023-10-13T15:10:34;1.70;;;1.60;;
80539;SDS011;69869;48.036;15.780;2023-10-13T15:13:02;1.60;;;1.50;;
80539;SDS011;69869;48.036;15.780;2023-10-13T15:15:28;1.55;;;1.45;;
80539;SDS011;69869;48.036;15.780;2023-10-13T15:17:57;1.50;;;1.40;;
80539;SDS011;69869;48.036;15.780;2023-10-13T15:20:23;1.50;;;1.40;;
80539;SDS011;69869;48.036;15.780;2023-10-13T15:22:49;1.80;;;1.40;;
80539;SDS011;69869;48.036;15.780;2023-10-13T15:25:14;1.92;;;1.80;;
80539;SDS011;69869;48.036;15.780;2023-10-13T15:27:53;1.55;;;1.45;;
80539;SDS011;69869;48.036;15.780;2023-10-13T15:30:24;1.63;;;1.52;;
80539;SDS011;69869;48.036;15.780;2023-10-13T15:33:07;1.70;;;1.60;;
80539;SDS011;69869;48.036;15.780;2023-10-13T15:35:33;1.65;;;1.55;;
80539;SDS011;69869;48.036;15.780;2023-10-13T15:37:58;1.83;;;1.70;;
80539;SDS011;69869;48.036;15.780;2023-10-13T15:40:25;1.60;;;1.50;;
80539;SDS011;69869;48.036;15.780;2023-10-13T15:42:52;1.90;;;1.80;;
80539;SDS011;69869;48.036;15.780;2023-10-13T15:45:24;1.75;;;1.65;;
80539;SDS011;69869;48.036;15.780;2023-10-13T15:47:57;1.60;;;1.50;;
80539;SDS011;69869;48.036;15.780;2023-10-13T15:50:23;2.22;;;1.80;;
80539;SDS011;69869;48.036;15.780;2023-10-13T15:52:49;1.70;;;1.60;;
80539;SDS011;69869;48.036;15.780;2023-10-13T15:55:15;1.88;;;1.67;;
80539;SDS011;69869;48.036;15.780;2023-10-13T15:57:44;1.70;;;1.60;;
80539;SDS011;69869;48.036;15.780;2023-10-13T16:00:10;1.67;;;1.58;;
80539;SDS011;69869;48.036;15.780;2023-10-13T16:02:50;2.33;;;2.10;;
80539;SDS011;69869;48.036;15.780;2023-10-13T16:05:19;1.70;;;1.60;;